createdAt,value
2023-01-03T00:00:48.453Z,98855.75
2023-01-03T00:03:18.523Z,98857.09
2023-01-03T00:05:46.642Z,98867.28
2023-01-03T00:08:13.601Z,98866.19
2023-01-03T00:10:40.449Z,98857.31
2023-01-03T00:13:07.083Z,98866.16
2023-01-03T00:15:38.435Z,98867.47
2023-01-03T00:18:05.369Z,98863.88
2023-01-03T00:20:34.544Z,98869.53
2023-01-03T00:23:02.382Z,98873.03
2023-01-03T00:25:29.976Z,98878.56
2023-01-03T00:27:57.104Z,98881.56
2023-01-03T00:30:24.015Z,98875.47
2023-01-03T00:32:50.858Z,98880.75
2023-01-03T00:35:17.590Z,98875.59
2023-01-03T00:37:44.489Z,98887.00
2023-01-03T00:40:11.836Z,98873.44
2023-01-03T00:42:58.604Z,98878.56
2023-01-03T00:45:25.867Z,98876.69
2023-01-03T00:47:53.339Z,98883.38
2023-01-03T00:50:20.256Z,98886.16
2023-01-03T00:52:47.137Z,98893.28
2023-01-03T00:55:14.077Z,98895.94
2023-01-03T00:57:40.915Z,98887.16
2023-01-03T01:00:07.946Z,98894.81
2023-01-03T01:02:34.897Z,98894.31
2023-01-03T01:05:01.963Z,98895.37
2023-01-03T01:07:28.940Z,98902.97
2023-01-03T01:09:55.791Z,98896.72
2023-01-03T01:12:22.451Z,98897.22
2023-01-03T01:14:49.353Z,98898.09
2023-01-03T01:17:22.228Z,98901.13
2023-01-03T01:19:49.635Z,98899.12
2023-01-03T01:22:16.584Z,98905.78
2023-01-03T01:24:43.555Z,98903.63
2023-01-03T01:27:10.697Z,98904.72
2023-01-03T01:29:38.643Z,98900.94
2023-01-03T01:32:06.037Z,98900.00
2023-01-03T01:34:33.247Z,98909.00
2023-01-03T01:37:00.355Z,98901.88
2023-01-03T01:39:28.643Z,98892.38
2023-01-03T01:42:20.779Z,98904.53
2023-01-03T01:45:04.512Z,98898.16
2023-01-03T01:47:33.645Z,98894.94
2023-01-03T01:50:38.399Z,98897.56
2023-01-03T01:53:23.848Z,98896.84
2023-01-03T01:56:16.061Z,98909.03
2023-01-03T01:58:44.406Z,98904.91
2023-01-03T02:01:13.374Z,98911.84
2023-01-03T02:03:41.912Z,98904.97
2023-01-03T02:06:11.056Z,98908.44
2023-01-03T02:08:37.943Z,98906.97
2023-01-03T02:11:20.649Z,98910.84
2023-01-03T02:14:23.219Z,98908.38
2023-01-03T02:17:05.923Z,98905.44
2023-01-03T02:20:17.782Z,98916.03
2023-01-03T02:23:02.523Z,98927.31
2023-01-03T02:25:50.662Z,98916.81
2023-01-03T02:28:38.527Z,98911.22
2023-01-03T02:31:09.528Z,98915.12
2023-01-03T02:33:57.999Z,98919.78
2023-01-03T02:36:36.157Z,98915.50
2023-01-03T02:39:30.063Z,98919.97
2023-01-03T02:42:18.542Z,98918.44
2023-01-03T02:44:55.759Z,98914.81
2023-01-03T02:47:25.896Z,98922.91
2023-01-03T02:49:53.272Z,98931.41
2023-01-03T02:52:24.299Z,98923.91
2023-01-03T02:55:09.012Z,98919.75
2023-01-03T02:58:02.276Z,98923.94
2023-01-03T03:00:31.808Z,98927.50
2023-01-03T03:03:02.714Z,98938.81
2023-01-03T03:05:33.941Z,98944.28
2023-01-03T03:08:00.852Z,98935.47
2023-01-03T03:10:46.954Z,98930.88
2023-01-03T03:13:30.587Z,98943.47
2023-01-03T03:16:05.906Z,98946.22
2023-01-03T03:19:00.088Z,98954.00
2023-01-03T03:21:51.376Z,98951.41
2023-01-03T03:24:40.004Z,98952.13
2023-01-03T03:27:28.363Z,98955.22
2023-01-03T03:29:58.424Z,98961.50
2023-01-03T03:32:27.522Z,98957.06
2023-01-03T03:34:56.441Z,98949.72
2023-01-03T03:37:25.448Z,98955.47
2023-01-03T03:40:10.801Z,98958.34
2023-01-03T03:43:11.095Z,98970.78
2023-01-03T03:45:59.796Z,98980.63
2023-01-03T03:48:54.044Z,98985.44
2023-01-03T03:51:22.487Z,98989.03
2023-01-03T03:53:50.857Z,98986.03
2023-01-03T03:56:19.534Z,98992.66
2023-01-03T03:58:49.929Z,98996.72
2023-01-03T04:01:19.421Z,98986.25
2023-01-03T04:03:47.787Z,98991.16
2023-01-03T04:06:31.629Z,98999.00
2023-01-03T04:08:58.781Z,98998.38
2023-01-03T04:11:25.666Z,99007.19
2023-01-03T04:13:52.512Z,99010.47
2023-01-03T04:16:19.247Z,99015.50
2023-01-03T04:18:46.133Z,99013.38
2023-01-03T04:21:20.229Z,99010.50
2023-01-03T04:23:47.745Z,99010.75
2023-01-03T04:26:14.675Z,99010.47
2023-01-03T04:28:41.516Z,99014.06
2023-01-03T04:31:08.395Z,99018.78
2023-01-03T04:33:35.344Z,99020.59
2023-01-03T04:36:02.201Z,99018.22
2023-01-03T04:38:28.917Z,99026.13
2023-01-03T04:40:55.806Z,99024.38
2023-01-03T04:43:41.358Z,99028.19
2023-01-03T04:46:08.259Z,99030.84
2023-01-03T04:48:35.116Z,99036.09
2023-01-03T04:51:01.761Z,99044.94
2023-01-03T04:53:28.655Z,99037.19
2023-01-03T04:55:59.264Z,99049.84
2023-01-03T04:58:26.339Z,99045.12
2023-01-03T05:00:53.318Z,99054.63
2023-01-03T05:03:25.848Z,99059.06
2023-01-03T05:05:59.197Z,99054.81
2023-01-03T05:08:26.309Z,99058.53
2023-01-03T05:10:53.796Z,99054.56
2023-01-03T05:13:20.785Z,99055.56
2023-01-03T05:15:47.741Z,99052.75
2023-01-03T05:18:14.797Z,99055.81
2023-01-03T05:21:00.238Z,99068.97
2023-01-03T05:23:45.948Z,99066.06
2023-01-03T05:26:20.312Z,99071.84
2023-01-03T05:28:50.027Z,99072.03
2023-01-03T05:31:16.909Z,99069.69
2023-01-03T05:33:43.811Z,99065.34
2023-01-03T05:36:11.154Z,99063.06
2023-01-03T05:38:38.666Z,99068.31
2023-01-03T05:41:06.168Z,99070.84
2023-01-03T05:43:33.309Z,99080.78
2023-01-03T05:46:00.284Z,99066.03
2023-01-03T05:48:27.270Z,99074.19
2023-01-03T05:50:57.544Z,99081.19
2023-01-03T05:53:24.951Z,99079.63
2023-01-03T05:55:51.888Z,99091.28
2023-01-03T05:58:18.860Z,99084.41
2023-01-03T06:00:45.723Z,99097.38
2023-01-03T06:03:12.467Z,99093.97
2023-01-03T06:05:43.282Z,99094.31
2023-01-03T06:08:13.292Z,99094.16
2023-01-03T06:10:41.111Z,99095.81
2023-01-03T06:13:08.171Z,99087.16
2023-01-03T06:15:35.008Z,99092.06
2023-01-03T06:18:02.867Z,99089.72
2023-01-03T06:20:30.409Z,99095.81
2023-01-03T06:22:57.883Z,99086.84
2023-01-03T06:25:24.939Z,99090.94
2023-01-03T06:27:51.860Z,99096.03
2023-01-03T06:30:18.962Z,99094.22
2023-01-03T06:32:46.132Z,99102.53
2023-01-03T06:35:13.187Z,99100.19
2023-01-03T06:37:40.327Z,99103.56
2023-01-03T06:40:07.885Z,99109.16
2023-01-03T06:42:44.447Z,99104.50
2023-01-03T06:45:31.649Z,99105.97
2023-01-03T06:48:21.748Z,99103.88
2023-01-03T06:51:10.918Z,99105.22
2023-01-03T06:53:40.249Z,99107.78
2023-01-03T06:56:08.205Z,99105.12
2023-01-03T06:58:35.905Z,99109.91
2023-01-03T07:01:04.398Z,99105.00
2023-01-03T07:03:32.363Z,99115.41
2023-01-03T07:05:59.781Z,99111.25
2023-01-03T07:08:26.709Z,99107.41
2023-01-03T07:10:55.028Z,99123.34
2023-01-03T07:13:40.455Z,99118.56
2023-01-03T07:16:07.574Z,99127.44
2023-01-03T07:18:34.473Z,99117.66
2023-01-03T07:21:01.359Z,99119.75
2023-01-03T07:23:28.209Z,99111.56
2023-01-03T07:25:55.647Z,99129.22
2023-01-03T07:28:22.742Z,99134.91
2023-01-03T07:30:49.903Z,99133.66
2023-01-03T07:36:11.006Z,99144.06
2023-01-03T07:38:42.368Z,99144.75
2023-01-03T07:43:57.890Z,99148.59
2023-01-03T07:46:25.450Z,99140.06
2023-01-03T08:07:18.958Z,99173.31
2023-01-03T08:10:04.309Z,99172.47
2023-01-03T08:12:57.455Z,99166.84
2023-01-03T08:15:24.477Z,99171.34
2023-01-03T08:17:53.937Z,99174.78
2023-01-03T08:20:23.880Z,99167.56
2023-01-03T08:22:50.772Z,99173.25
2023-01-03T08:25:17.692Z,99178.31
2023-01-03T08:27:50.006Z,99170.87
2023-01-03T08:30:17.448Z,99179.28
2023-01-03T08:35:27.108Z,99186.97
2023-01-03T08:37:54.470Z,99191.56
2023-01-03T08:40:41.885Z,99189.44
2023-01-03T08:45:59.610Z,99190.41
2023-01-03T08:48:26.634Z,99194.28
2023-01-03T08:50:53.513Z,99193.28
2023-01-03T08:53:23.052Z,99191.69
2023-01-03T08:55:50.084Z,99195.59
2023-01-03T08:58:17.307Z,99190.25
2023-01-03T09:00:46.196Z,99197.22
2023-01-03T09:03:13.294Z,99194.66
2023-01-03T09:05:40.448Z,99200.50
2023-01-03T09:08:07.586Z,99200.00
2023-01-03T09:10:36.298Z,99202.25
2023-01-03T09:13:04.712Z,99204.94
2023-01-03T09:15:31.597Z,99209.31
2023-01-03T09:17:58.411Z,99200.50
2023-01-03T09:20:26.307Z,99203.09
2023-01-03T09:22:53.459Z,99209.09
2023-01-03T09:25:20.319Z,99199.44
2023-01-03T09:27:48.103Z,99204.78
2023-01-03T09:30:16.160Z,99213.06
2023-01-03T09:32:43.051Z,99215.91
2023-01-03T09:35:10.318Z,99216.53
2023-01-03T09:37:37.220Z,99213.19
2023-01-03T09:40:04.548Z,99209.37
2023-01-03T09:42:50.107Z,99206.38
2023-01-03T09:45:25.060Z,99208.03
2023-01-03T09:47:51.969Z,99211.47
2023-01-03T09:50:44.457Z,99213.03
2023-01-03T09:53:44.043Z,99214.16
2023-01-03T09:56:31.032Z,99210.38
2023-01-03T09:59:47.831Z,99214.59
2023-01-03T10:03:03.379Z,99209.72
2023-01-03T10:05:56.090Z,99205.16
2023-01-03T10:08:32.023Z,99205.78
2023-01-03T10:11:08.335Z,99210.22
2023-01-03T10:13:35.208Z,99202.94
2023-01-03T10:16:11.254Z,99205.59
2023-01-03T10:19:02.774Z,99193.16
2023-01-03T10:21:42.637Z,99193.09
2023-01-03T10:24:18.660Z,99194.25
2023-01-03T10:26:45.567Z,99190.34
2023-01-03T10:29:13.707Z,99192.84
2023-01-03T10:32:07.829Z,99190.31
2023-01-03T10:34:34.750Z,99192.09
2023-01-03T10:37:02.404Z,99185.22
2023-01-03T10:39:32.561Z,99188.22
2023-01-03T10:42:00.492Z,99194.66
2023-01-03T10:44:30.055Z,99191.88
2023-01-03T10:46:59.631Z,99192.25
2023-01-03T10:49:30.638Z,99191.53
2023-01-03T10:52:05.134Z,99186.78
2023-01-03T10:54:41.297Z,99196.44
2023-01-03T10:57:08.326Z,99193.63
2023-01-03T10:59:35.770Z,99193.84
2023-01-03T11:02:09.011Z,99196.13
2023-01-03T11:04:36.163Z,99193.56
2023-01-03T11:07:04.880Z,99187.78
2023-01-03T11:09:47.012Z,99190.53
2023-01-03T11:12:41.673Z,99183.50
2023-01-03T11:15:37.627Z,99184.66
2023-01-03T11:18:19.427Z,99186.53
2023-01-03T11:21:01.329Z,99181.16
2023-01-03T11:23:45.107Z,99177.13
2023-01-03T11:26:43.173Z,99181.12
2023-01-03T11:29:31.780Z,99177.19
2023-01-03T11:32:03.140Z,99175.44
2023-01-03T11:37:52.444Z,99171.63
2023-01-03T11:40:22.134Z,99171.63
2023-01-03T11:43:10.454Z,99171.25
2023-01-03T11:46:14.163Z,99161.44
2023-01-03T11:49:09.936Z,99168.09
2023-01-03T11:51:44.981Z,99166.44
2023-01-03T11:55:13.117Z,99163.69
2023-01-03T11:58:11.857Z,99161.34
2023-01-03T12:00:50.834Z,99165.25
2023-01-03T12:03:34.801Z,99157.69
2023-01-03T12:06:13.814Z,99155.41
2023-01-03T12:08:49.187Z,99162.16
2023-01-03T12:11:45.321Z,99163.31
2023-01-03T12:14:17.867Z,99163.09
2023-01-03T12:17:09.054Z,99164.44
2023-01-03T12:20:01.561Z,99162.59
2023-01-03T12:22:37.396Z,99159.44
2023-01-03T12:25:21.684Z,99160.84
2023-01-03T12:28:05.674Z,99155.00
2023-01-03T12:30:46.454Z,99154.78
2023-01-03T12:33:13.345Z,99154.41
2023-01-03T12:36:13.029Z,99151.28
2023-01-03T12:38:42.939Z,99157.88
2023-01-03T12:41:39.282Z,99153.09
2023-01-03T12:44:20.265Z,99157.25
2023-01-03T12:46:55.707Z,99153.13
2023-01-03T12:49:40.890Z,99156.00
2023-01-03T12:52:17.038Z,99155.53
2023-01-03T12:55:21.475Z,99148.16
2023-01-03T12:57:57.559Z,99154.87
2023-01-03T13:00:44.761Z,99146.75
2023-01-03T13:03:20.770Z,99146.50
2023-01-03T13:05:50.549Z,99146.19
2023-01-03T13:08:50.085Z,99153.28
2023-01-03T13:11:29.240Z,99152.09
2023-01-03T13:13:59.628Z,99145.34
2023-01-03T13:16:34.615Z,99149.38
2023-01-03T13:19:20.302Z,99146.94
2023-01-03T13:21:53.021Z,99148.44
2023-01-03T13:24:43.355Z,99141.84
2023-01-03T13:27:19.663Z,99151.25
2023-01-03T13:29:49.522Z,99146.97
2023-01-03T13:32:26.216Z,99143.34
2023-01-03T13:34:59.347Z,99135.19
2023-01-03T13:37:48.066Z,99139.59
2023-01-03T13:40:23.283Z,99145.16
2023-01-03T13:43:12.358Z,99149.84
2023-01-03T13:45:39.357Z,99150.53
2023-01-03T13:48:27.216Z,99150.94
2023-01-03T13:51:14.421Z,99150.28
2023-01-03T13:53:55.035Z,99152.28
2023-01-03T13:56:30.554Z,99154.28
2023-01-03T13:59:03.913Z,99152.91
2023-01-03T14:01:59.716Z,99149.53
2023-01-03T14:04:47.576Z,99163.03
2023-01-03T14:07:26.540Z,99164.38
2023-01-03T14:10:34.480Z,99170.91
2023-01-03T14:13:18.458Z,99170.81
2023-01-03T14:15:46.086Z,99171.44
2023-01-03T14:18:20.994Z,99173.31
2023-01-03T14:20:51.567Z,99178.44
2023-01-03T14:26:15.178Z,99182.25
2023-01-03T14:28:49.683Z,99185.81
2023-01-03T14:31:22.771Z,99179.66
2023-01-03T14:34:00.964Z,99180.38
2023-01-03T14:36:28.048Z,99189.94
2023-01-03T14:39:00.030Z,99189.78
2023-01-03T14:41:26.844Z,99190.09
2023-01-03T14:44:05.153Z,99193.47
2023-01-03T14:46:32.616Z,99191.38
2023-01-03T14:49:03.758Z,99197.22
2023-01-03T14:51:35.540Z,99196.66
2023-01-03T14:54:03.742Z,99196.19
2023-01-03T14:56:30.910Z,99196.97
2023-01-03T14:58:58.487Z,99199.19
2023-01-03T15:01:25.603Z,99204.41
2023-01-03T15:03:53.005Z,99197.94
2023-01-03T15:06:29.807Z,99209.97
2023-01-03T15:08:58.780Z,99203.00
2023-01-03T15:11:34.309Z,99203.28
2023-01-03T15:14:04.234Z,99206.47
2023-01-03T15:16:39.579Z,99202.22
2023-01-03T15:19:12.580Z,99204.62
2023-01-03T15:21:40.072Z,99215.22
2023-01-03T15:24:14.878Z,99219.84
2023-01-03T15:26:46.314Z,99211.69
2023-01-03T15:29:19.839Z,99212.31
2023-01-03T15:31:48.096Z,99224.53
2023-01-03T15:34:18.415Z,99222.19
2023-01-03T15:37:07.594Z,99226.50
2023-01-03T15:39:43.045Z,99224.91
2023-01-03T15:42:44.558Z,99220.56
2023-01-03T15:45:20.091Z,99225.97
2023-01-03T15:47:49.140Z,99222.34
2023-01-03T15:50:20.641Z,99231.28
2023-01-03T15:52:48.602Z,99239.72
2023-01-03T15:55:16.752Z,99244.75
2023-01-03T15:57:50.085Z,99236.94
2023-01-03T16:00:20.822Z,99247.00
2023-01-03T16:02:48.786Z,99251.97
2023-01-03T16:05:21.666Z,99252.00
2023-01-03T16:07:49.769Z,99247.28
2023-01-03T16:10:16.708Z,99246.31
2023-01-03T16:12:44.126Z,99244.97
2023-01-03T16:15:18.543Z,99243.59
2023-01-03T16:17:46.177Z,99241.41
2023-01-03T16:20:18.058Z,99247.94
2023-01-03T16:22:57.391Z,99253.16
2023-01-03T16:25:27.841Z,99241.41
2023-01-03T16:27:54.766Z,99254.06
2023-01-03T16:30:21.935Z,99250.06
2023-01-03T16:32:48.806Z,99257.22
2023-01-03T16:35:17.740Z,99260.06
2023-01-03T16:37:44.739Z,99255.41
2023-01-03T16:40:16.849Z,99263.66
2023-01-03T16:42:43.754Z,99261.37
2023-01-03T16:45:10.992Z,99271.19
2023-01-03T16:47:38.001Z,99270.34
2023-01-03T16:50:14.202Z,99274.41
2023-01-03T16:52:43.896Z,99275.16
2023-01-03T16:55:26.804Z,99275.97
2023-01-03T16:57:55.109Z,99281.38
2023-01-03T17:00:28.314Z,99278.25
2023-01-03T17:02:56.374Z,99281.38
2023-01-03T17:05:23.746Z,99276.37
2023-01-03T17:07:53.333Z,99273.88
2023-01-03T17:10:32.314Z,99275.78
2023-01-03T17:13:01.981Z,99276.16
2023-01-03T17:15:32.283Z,99272.16
2023-01-03T17:17:59.129Z,99270.81
2023-01-03T17:20:26.005Z,99273.72
2023-01-03T17:22:58.770Z,99274.19
2023-01-03T17:25:25.818Z,99279.28
2023-01-03T17:27:55.869Z,99276.16
2023-01-03T17:30:25.036Z,99276.50
2023-01-03T17:32:51.963Z,99276.87
2023-01-03T17:35:18.903Z,99279.97
2023-01-03T17:38:23.411Z,99279.28
2023-01-03T17:40:34.265Z,99287.78
2023-01-03T17:43:01.833Z,99294.38
2023-01-03T17:45:47.404Z,99286.41
2023-01-03T17:48:33.008Z,99298.50
2023-01-03T17:51:01.845Z,99294.03
2023-01-03T17:53:29.177Z,99293.91
2023-01-03T17:55:56.040Z,99298.53
2023-01-03T17:58:31.406Z,99300.34
2023-01-03T18:00:59.101Z,99300.31
2023-01-03T18:03:26.563Z,99303.06
2023-01-03T18:05:53.819Z,99293.06
2023-01-03T18:08:22.239Z,99306.53
2023-01-03T18:10:49.634Z,99302.31
2023-01-03T18:13:24.745Z,99302.25
2023-01-03T18:15:52.155Z,99310.53
2023-01-03T18:18:20.752Z,99303.62
2023-01-03T18:20:48.012Z,99299.94
2023-01-03T18:23:23.561Z,99312.75
2023-01-03T18:25:51.510Z,99311.50
2023-01-03T18:28:22.705Z,99313.88
2023-01-03T18:30:50.084Z,99320.69
2023-01-03T18:33:16.979Z,99316.56
2023-01-03T18:35:44.191Z,99322.91
2023-01-03T18:38:19.420Z,99321.97
2023-01-03T18:40:46.262Z,99321.19
2023-01-03T18:43:14.189Z,99335.22
2023-01-03T18:45:42.291Z,99330.87
2023-01-03T18:48:17.439Z,99330.91
2023-01-03T18:50:45.589Z,99330.25
2023-01-03T18:53:19.804Z,99343.28
2023-01-03T18:55:47.020Z,99343.53
2023-01-03T18:58:19.616Z,99344.47
2023-01-03T19:00:46.482Z,99350.84
2023-01-03T19:03:22.759Z,99347.38
2023-01-03T19:05:50.304Z,99355.53
2023-01-03T19:08:18.359Z,99360.53
2023-01-03T19:10:45.577Z,99368.22
2023-01-03T19:13:51.201Z,99362.78
2023-01-03T19:16:24.104Z,99373.19
2023-01-03T19:18:51.727Z,99375.69
2023-01-03T19:21:20.154Z,99365.53
2023-01-03T19:23:51.617Z,99372.19
2023-01-03T19:26:42.988Z,99366.59
2023-01-03T19:29:37.143Z,99363.94
2023-01-03T19:32:08.302Z,99363.94
2023-01-03T19:34:35.218Z,99351.63
2023-01-03T19:37:02.165Z,99361.53
2023-01-03T19:39:33.756Z,99358.56
2023-01-03T19:42:23.105Z,99357.56
2023-01-03T19:44:50.332Z,99359.88
2023-01-03T19:47:19.116Z,99363.06
2023-01-03T19:49:47.405Z,99358.78
2023-01-03T19:52:15.336Z,99363.69
2023-01-03T19:54:42.592Z,99360.34
2023-01-03T19:57:25.717Z,99365.25
2023-01-03T19:59:55.415Z,99362.63
2023-01-03T20:02:35.812Z,99369.22
2023-01-03T20:05:03.722Z,99365.53
2023-01-03T20:07:30.663Z,99355.34
2023-01-03T20:09:57.516Z,99366.34
2023-01-03T20:12:26.305Z,99369.47
2023-01-03T20:14:55.095Z,99376.25
2023-01-03T20:17:24.098Z,99365.53
2023-01-03T20:19:51.391Z,99372.53
2023-01-03T20:22:52.991Z,99374.28
2023-01-03T20:25:28.039Z,99376.19
2023-01-03T20:27:55.675Z,99372.91
2023-01-03T20:30:24.838Z,99372.03
2023-01-03T20:32:52.292Z,99370.03
2023-01-03T20:36:09.811Z,99370.28
2023-01-03T20:38:11.194Z,99373.03
2023-01-03T20:40:38.268Z,99363.84
2023-01-03T20:43:05.672Z,99369.81
2023-01-03T20:45:32.820Z,99369.13
2023-01-03T20:47:59.999Z,99368.28
2023-01-03T20:50:28.940Z,99371.13
2023-01-03T20:52:57.364Z,99379.09
2023-01-03T20:55:26.107Z,99379.56
2023-01-03T20:57:53.109Z,99375.13
2023-01-03T21:00:38.789Z,99370.22
2023-01-03T21:03:05.987Z,99380.22
2023-01-03T21:05:33.011Z,99375.06
2023-01-03T21:08:18.488Z,99385.06
2023-01-03T21:10:52.732Z,99380.69
2023-01-03T21:13:23.240Z,99382.84
2023-01-03T21:15:50.612Z,99375.28
2023-01-03T21:18:17.659Z,99380.59
2023-01-03T21:20:44.811Z,99369.22
2023-01-03T21:23:17.321Z,99377.94
2023-01-03T21:25:44.582Z,99370.16
2023-01-03T21:28:12.278Z,99379.44
2023-01-03T21:30:39.805Z,99381.09
2023-01-03T21:33:07.013Z,99376.78
2023-01-03T21:35:33.943Z,99382.22
2023-01-03T21:38:00.767Z,99380.44
2023-01-03T21:40:29.811Z,99388.06
2023-01-03T21:43:04.178Z,99383.13
2023-01-03T21:45:41.993Z,99383.41
2023-01-03T21:48:10.514Z,99381.13
2023-01-03T21:50:42.344Z,99384.91
2023-01-03T21:53:16.988Z,99384.06
2023-01-03T21:55:44.045Z,99387.75
2023-01-03T21:58:13.909Z,99385.88
2023-01-03T22:00:40.997Z,99389.34
2023-01-03T22:03:32.800Z,99391.37
2023-01-03T22:06:25.899Z,99395.91
2023-01-03T22:08:53.424Z,99395.44
2023-01-03T22:11:20.944Z,99393.13
2023-01-03T22:13:49.171Z,99399.00
2023-01-03T22:16:16.892Z,99405.66
2023-01-03T22:18:43.831Z,99402.78
2023-01-03T22:21:11.282Z,99401.75
2023-01-03T22:23:39.511Z,99406.22
2023-01-03T22:26:11.421Z,99401.28
2023-01-03T22:28:40.577Z,99399.78
2023-01-03T22:31:12.884Z,99409.44
2023-01-03T22:33:40.277Z,99410.94
2023-01-03T22:36:08.489Z,99417.25
2023-01-03T22:38:36.601Z,99407.03
2023-01-03T22:41:08.815Z,99410.22
2023-01-03T22:43:35.852Z,99411.97
2023-01-03T22:46:07.314Z,99409.91
2023-01-03T22:48:34.263Z,99400.84
2023-01-03T22:51:09.543Z,99415.28
2023-01-03T22:53:41.443Z,99423.03
2023-01-03T22:56:10.990Z,99421.63
2023-01-03T22:58:38.377Z,99416.81
2023-01-03T23:01:13.191Z,99419.59
2023-01-03T23:03:40.263Z,99423.09
2023-01-03T23:06:08.762Z,99416.03
2023-01-03T23:08:36.044Z,99419.78
2023-01-03T23:11:31.480Z,99419.59
2023-01-03T23:14:02.030Z,99422.31
2023-01-03T23:16:28.938Z,99417.00
2023-01-03T23:18:55.860Z,99418.97
2023-01-03T23:21:22.737Z,99419.03
2023-01-03T23:23:50.592Z,99416.81
2023-01-03T23:26:17.712Z,99413.31
2023-01-03T23:28:44.816Z,99414.94
2023-01-03T23:31:11.839Z,99408.50
2023-01-03T23:33:38.831Z,99412.13
2023-01-03T23:36:06.830Z,99414.66
2023-01-03T23:38:33.770Z,99416.59
2023-01-03T23:41:06.190Z,99411.56
2023-01-03T23:43:34.170Z,99407.06
2023-01-03T23:46:01.237Z,99397.66
2023-01-03T23:48:28.657Z,99401.31
2023-01-03T23:51:02.550Z,99405.31
2023-01-03T23:53:29.380Z,99400.31
2023-01-03T23:55:56.369Z,99401.56
2023-01-03T23:58:23.247Z,99402.00
